Home > Products > Valid Products > TAF

000
FTUS46 KMTR 241300 AAA
TAFSFO
TAF AMD
KSFO 241347Z 2414/2518 16005KT P6SM FEW015
     FM241800 15006KT P6SM SCT250
     FM242100 25012KT P6SM BKN250
     FM250400 19008KT P6SM BKN015 BKN150
     FM251200 17010KT P6SM OVC025
      TEMPO 2512/2516 -RA=



000
FTUS46 KMTR 241100
TAFSJC
TAF
KSJC 241125Z 2412/2512 14005KT P6SM SKC
     FM242100 24008KT P6SM BKN250
     FM250300 VRB03KT P6SM BKN150
     FM250900 14006KT P6SM SCT020 BKN150=



000
FTUS46 KMTR 241100
TAFSTS
TAF
KSTS 241125Z 2412/2512 VRB03KT 1SM BR BKN002
     FM241600 00000KT P6SM SCT005 BKN250
     FM241900 18008KT P6SM BKN250
     FM250300 15005KT P6SM BKN050=



000
FTUS46 KMTR 241100
TAFSFO
TAF
KSFO 241125Z 2412/2518 16005KT P6SM SCT015
      TEMPO 2412/2416 BKN015
     FM241800 15006KT P6SM SCT250
     FM242100 25012KT P6SM BKN250
     FM250400 19008KT P6SM BKN015 BKN150
     FM251200 17010KT P6SM OVC025
      TEMPO 2512/2516 -RA=



000
FTUS46 KMTR 241100
TAFSNS
TAF
KSNS 241125Z 2412/2512 11004KT P6SM BKN005
     FM241700 VRB03KT P6SM SCT010
     FM241900 28012KT P6SM SCT250
     FM250300 29006KT P6SM BKN015=



000
FTUS46 KMTR 241100
TAFMRY
TAF
KMRY 241125Z 2412/2512 09004KT P6SM BKN005
     FM241800 27004KT P6SM SCT250
     FM242100 24007KT P6SM SCT250
     FM250200 21005KT P6SM BKN015=



000
FTUS46 KMTR 241100
TAFOAK
TAF
KOAK 241125Z 2412/2518 11006KT P6SM FEW010
     FM242000 25010KT P6SM SCT250
     FM250400 20009KT P6SM BKN015 BKN150
     FM251200 16010KT P6SM OVC040
      TEMPO 2514/2518 -RA=



000
FTUS46 KMTR 240900 AAA
TAFSTS
TAF AMD
KSTS 240926Z 2409/2506 VRB03KT 1/2SM FG BKN002
     FM241600 00000KT P6SM SCT005 BKN250
     FM241900 18008KT P6SM BKN250
     FM250300 15005KT P6SM BKN050=



000
FTUS46 KMTR 240700 AAA
TAFSFO
TAF AMD
KSFO 240726Z 2407/2512 30004KT P6SM SKC
     FM241000 VRB03KT P6SM BKN015
     FM241800 15006KT P6SM SCT015
     FM242200 22012KT P6SM FEW020 BKN250
     FM250400 19012KT P6SM BKN020 BKN250
     FM250600 17010KT P6SM OVC015=



000
FTUS46 KMTR 240500
TAFSJC
TAF
KSJC 240535Z 2406/2506 00000KT P6SM SKC
     FM241300 00000KT P6SM BKN015
     FM241600 00000KT P6SM FEW020
     FM242100 22008KT P6SM FEW025 BKN250
     FM250300 16007KT P6SM FEW020 OVC250=



000
FTUS46 KMTR 240500
TAFSFO
TAF
KSFO 240535Z 2406/2512 30004KT P6SM SKC
     FM240700 VRB03KT P6SM OVC015
     FM241800 15006KT P6SM SCT015
     FM242200 22012KT P6SM FEW020 BKN250
     FM250400 19012KT P6SM BKN020 BKN250
     FM250600 17010KT P6SM OVC015=



000
FTUS46 KMTR 240500
TAFMRY
TAF
KMRY 240535Z 2406/2506 VRB04KT P6SM SKC
     FM241000 09004KT P6SM BKN007
     FM241800 27004KT P6SM SCT250
     FM242100 24007KT P6SM SCT250
     FM250100 21005KT P6SM SCT250=



000
FTUS46 KMTR 240500
TAFSTS
TAF
KSTS 240535Z 2406/2506 32004KT P6SM SKC
     FM240900 00000KT P6SM SCT100
     FM241100 00000KT P6SM OVC008
     FM241600 00000KT P6SM FEW008 BKN250
     FM241900 18008KT P6SM BKN250
     FM250300 15005KT P6SM BKN050=



000
FTUS46 KMTR 240500
TAFOAK
TAF
KOAK 240535Z 2406/2512 00000KT P6SM SKC
     FM241100 VRB04KT P6SM OVC015
     FM241800 21006KT P6SM SCT020
     FM242100 24010KT P6SM FEW020 BKN250
     FM250400 20009KT P6SM BKN020 BKN250
     FM250600 17012KT P6SM OVC015=



000
FTUS46 KMTR 240500
TAFSNS
TAF
KSNS 240535Z 2406/2506 00000KT P6SM SKC
     FM241200 11004KT P6SM OVC008
     FM241700 12009KT P6SM SCT010
     FM242000 28012KT P6SM SKC
     FM250300 29006KT P6SM BKN007=



000
FTUS46 KMTR 232300
TAFOAK
TAF
KOAK 232324Z 2400/2506 27008KT P6SM FEW020 BKN150
     FM240400 29004KT P6SM SCT025
     FM240800 35004KT P6SM OVC020
     FM241200 12004KT P6SM OVC015
     FM241800 17006KT P6SM SCT020
     FM242100 24010KT P6SM SCT025
     FM250400 22009KT P6SM BKN020=



000
FTUS46 KMTR 232300
TAFSJC
TAF
KSJC 232324Z 2400/2424 30010KT P6SM FEW030 SCT180
     FM240400 31005KT P6SM SCT025
     FM240900 VRB03KT P6SM BKN020
     FM241200 00000KT P6SM BKN015
     FM241700 12003KT P6SM SCT020
     FM242100 22008KT P6SM FEW025=



000
FTUS46 KMTR 232300
TAFSTS
TAF
KSTS 232324Z 2400/2424 22005KT P6SM SCT030 BKN050 OVC100
     FM240600 00000KT P6SM SCT015 OVC025
     FM241200 00000KT 6SM BR OVC008
     FM241600 VRB02KT P6SM OVC025
     FM241900 14007KT P6SM SCT030 BKN050 OVC180=



000
FTUS46 KMTR 232300
TAFSFO
TAF
KSFO 232324Z 2400/2506 28010KT P6SM FEW025 BKN150
     FM240500 31005KT P6SM SCT020 BKN150
     FM240700 VRB03KT P6SM OVC015
     FM241400 12005KT P6SM OVC015
     FM241800 15006KT P6SM SCT015
     FM242200 22012KT P6SM SCT020
     FM250400 17011KT P6SM BKN020=



000
FTUS46 KMTR 232300
TAFMRY
TAF
KMRY 232324Z 2400/2424 25006KT P6SM FEW200
     FM240300 20003KT P6SM SCT012 SCT150
     FM240600 VRB03KT P6SM BKN012
     FM241200 11003KT P6SM BKN007 OVC010
     FM241800 27004KT P6SM SCT010
     FM242100 24007KT P6SM FEW015=



000
FTUS46 KMTR 232300
TAFSNS
TAF
KSNS 232324Z 2400/2424 29010KT P6SM FEW200
     FM240400 28005KT P6SM SCT012
     FM240600 VRB03KT P6SM OVC012
     FM241200 11004KT P6SM OVC008
     FM241700 12009KT P6SM SCT010
     FM242000 27011KT P6SM SKC=



000
FTUS46 KMTR 231700
TAFMRY
TAF
KMRY 231735Z 2318/2418 29003KT P6SM FEW200
     FM240400 VRB03KT P6SM SCT010 SCT150
     FM240600 VRB03KT P6SM OVC015
     FM241300 09002KT P6SM BKN007=



000
FTUS46 KMTR 231700
TAFOAK
TAF
KOAK 231735Z 2318/2424 15004KT P6SM FEW010 BKN150
     FM232000 27008KT P6SM BKN150
     FM240400 29004KT P6SM SCT025
     FM240800 35004KT P6SM OVC020
     FM241200 12004KT P6SM OVC015
     FM241800 17006KT P6SM SCT015=



000
FTUS46 KMTR 231700
TAFSJC
TAF
KSJC 231735Z 2318/2418 00000KT P6SM FEW018 SCT070 BKN130
     FM231900 31008KT P6SM BKN150
     FM240600 32003KT P6SM BKN025
     FM241200 00000KT P6SM BKN015
     FM241700 12003KT P6SM SCT015=



000
FTUS46 KMTR 231700
TAFSTS
TAF
KSTS 231735Z 2318/2418 00000KT P6SM SCT050 BKN200
     FM232200 20005KT P6SM BKN050
     FM240600 00000KT P6SM OVC025
     FM241200 00000KT 6SM BR OVC010
     FM241600 VRB02KT P6SM OVC025=



000
FTUS46 KMTR 231700
TAFSNS
TAF
KSNS 231735Z 2318/2418 00000KT P6SM FEW200
     FM232100 29010KT P6SM SCT200
     FM240300 28005KT P6SM SCT010
     FM240600 VRB03KT P6SM OVC010
     FM241300 VRB03KT P6SM OVC007=



000
FTUS46 KMTR 231700
TAFSFO
TAF
KSFO 231735Z 2318/2424 07003KT P6SM FEW010 BKN180
     FM232000 28010KT P6SM BKN150
     FM240500 31005KT P6SM SCT020 BKN150
     FM240700 VRB03KT P6SM OVC015
     FM241400 12005KT P6SM OVC015
     FM241800 19007KT P6SM SCT015=



000
FTUS46 KMTR 231500 AAB
TAFSFO
TAF AMD
KSFO 231513Z 2315/2418 16003KT P6SM FEW017 BKN180
     FM231800 29006KT P6SM SCT020 BKN150
     FM232000 27012KT P6SM BKN150
     FM240500 31005KT P6SM SCT020 BKN150
     FM240700 VRB03KT P6SM OVC015
     FM241400 12005KT P6SM OVC015=



000
FTUS46 KMTR 231400 AAA
TAFSJC
TAF AMD
KSJC 231423Z 2314/2412 08003KT P6SM FEW008 BKN016 BKN120
     FM231900 31008KT P6SM OVC200
     FM240400 31003KT P6SM BKN200
     FM240800 16003KT P6SM SCT020 BKN150=



000
FTUS46 KMTR 231400 AAA
TAFSJC
TAF AMD
KSJC 231423Z 2314/2412 08003KT P6SM FEW008 BKN016 BKN120
     FM231900 31008KT P6SM OVC200
     FM240400 31003KT P6SM BKN200
     FM240800 16003KT P6SM SCT020 BKN150=



000
FTUS46 KMTR 231300 AAA
TAFSTS
TAF AMD
KSTS 231348Z 2314/2412 00000KT P6SM SCT020 BKN100
     FM231800 VRB03KT P6SM -RA SCT025 OVC050
     FM240400 VRB03KT P6SM BKN015=



000
FTUS46 KMTR 231200 AAA
TAFSFO
TAF AMD
KSFO 231235Z 2313/2418 26003KT P6SM BKN015
     FM231800 29006KT P6SM SCT020 BKN150
     FM232000 27012KT P6SM BKN150
     FM240500 31005KT P6SM SCT020 BKN150
     FM240700 VRB03KT P6SM OVC015
     FM241400 12005KT P6SM OVC015=



000
FTUS46 KMTR 231100
TAFSNS
TAF
KSNS 231122Z 2312/2412 VRB04KT P6SM BKN200
     FM231900 26010KT P6SM BKN200
     FM240400 28005KT P6SM SCT010
     FM240600 VRB03KT P6SM OVC010=



000
FTUS46 KMTR 231100
TAFSTS
TAF
KSTS 231122Z 2312/2412 00000KT P6SM BKN020
     FM231800 VRB03KT P6SM -RA SCT025 OVC050
     FM240400 VRB03KT P6SM BKN015=



000
FTUS46 KMTR 231100
TAFOAK
TAF
KOAK 231122Z 2312/2418 27003KT P6SM BKN020
     FM231800 26006KT P6SM SCT025 BKN150
     FM232000 25010KT P6SM BKN150
     FM240400 31006KT P6SM SCT025
     FM240600 35004KT P6SM OVC020
     FM241200 12004KT P6SM OVC015=



000
FTUS46 KMTR 231100
TAFSJC
TAF
KSJC 231122Z 2312/2412 30005KT P6SM BKN250
     FM231300 VRB03KT P6SM SCT020 BKN200
     FM231900 31008KT P6SM OVC200
     FM240400 31003KT P6SM BKN200
     FM240800 16003KT P6SM SCT020 BKN150=



000
FTUS46 KMTR 231100
TAFSFO
TAF
KSFO 231122Z 2312/2418 26003KT P6SM BKN020
     FM231800 29006KT P6SM SCT025 BKN150
     FM232000 27012KT P6SM BKN150
     FM240500 31005KT P6SM SCT020 BKN150
     FM240700 VRB03KT P6SM OVC015
     FM241400 12005KT P6SM OVC015=



000
FTUS46 KMTR 231100
TAFMRY
TAF
KMRY 231122Z 2312/2412 VRB03KT P6SM BKN200
     FM231900 29005KT P6SM BKN200
     FM240400 VRB03KT P6SM SCT010
     FM240600 VRB03KT P6SM OVC008=



000
FTUS46 KMTR 231000 AAA
TAFSTS
TAF AMD
KSTS 231042Z 2311/2406 00000KT P6SM SCT020 BKN150
     FM231200 00000KT P6SM BKN020
     FM231800 VRB03KT P6SM VCSH SCT025 OVC050=



000
FTUS46 KMTR 230900 AAA
TAFSFO
TAF AMD
KSFO 230910Z 2309/2412 29008KT P6SM FEW010 BKN150
     FM231200 26003KT P6SM BKN015
     FM231800 29009KT P6SM FEW008 SCT015 OVC100
     FM240900 VRB03KT P6SM OVC015=



000
FTUS46 KMTR 230900 AAA
TAFSNS
TAF AMD
KSNS 230910Z 2309/2406 29003KT P6SM SKC
     FM231200 VRB04KT P6SM BKN005
     FM231900 26004KT P6SM FEW008 SCT250
     FM232100 28012KT P6SM SCT250
     FM240200 28005KT P6SM BKN015=



000
FTUS46 KMTR 230900 AAA
TAFMRY
TAF AMD
KMRY 230909Z 2309/2406 15004KT P6SM SKC
     FM231200 VRB03KT P6SM OVC005
     FM231900 29005KT P6SM FEW008 SCT250
     FM240400 VRB03KT P6SM OVC007=



000
FTUS46 KMTR 230800 AAA
TAFOAK
TAF AMD
KOAK 230838Z 2309/2412 31005KT P6SM FEW150 BKN200
     FM231200 27003KT P6SM BKN015
     FM231800 26006KT P6SM SCT015 OVC100
     FM240300 31006KT P6SM OVC050=



000
FTUS46 KMTR 230500
TAFOAK
TAF
KOAK 230520Z 2306/2412 31005KT P6SM FEW150 BKN200
     FM230900 27003KT P6SM BKN015
     FM231800 26006KT P6SM SCT015 OVC100
     FM240300 31006KT P6SM OVC050=



000
FTUS46 KMTR 230500
TAFSJC
TAF
KSJC 230520Z 2306/2406 30005KT P6SM BKN250
     FM231300 VRB03KT P6SM SCT015 BKN200
     FM231900 31008KT P6SM OVC200
     FM240400 31003KT P6SM BKN250=



000
FTUS46 KMTR 230500
TAFMRY
TAF
KMRY 230520Z 2306/2406 15004KT P6SM SKC
     FM230900 VRB03KT P6SM OVC005
     FM231100 VRB03KT P6SM OVC003
     FM231900 29005KT P6SM FEW008 SCT250
     FM240400 VRB03KT P6SM OVC007=



000
FTUS46 KMTR 230500
TAFSFO
TAF
KSFO 230520Z 2306/2412 29008KT P6SM FEW010 BKN150
     FM231000 26003KT P6SM BKN015
     FM231800 29009KT P6SM FEW008 SCT015 OVC100
     FM240900 VRB03KT P6SM OVC015=



000
FTUS46 KMTR 230500
TAFSTS
TAF
KSTS 230520Z 2306/2406 00000KT P6SM FEW050 BKN250
     FM230800 00000KT P6SM BKN008
     FM231000 00000KT 3SM BR OVC004
     FM231800 VRB03KT P6SM FEW008 OVC050=



000
FTUS46 KMTR 230500
TAFSNS
TAF
KSNS 230520Z 2306/2406 29003KT P6SM SKC
     FM231000 VRB04KT P6SM BKN005
     FM231900 26004KT P6SM FEW008 SCT250
     FM232100 28012KT P6SM SCT250
     FM240200 28005KT P6SM BKN015=



000
FTUS46 KMTR 230300 AAA
TAFSFO
TAF AMD
KSFO 230307Z 2303/2406 28013KT P6SM FEW010 BKN150
     FM230400 27008KT P6SM FEW010 BKN150
     FM231000 26003KT P6SM BKN015
     FM231800 29009KT P6SM FEW008 SCT015 OVC100=



000
FTUS46 KMTR 222300
TAFSNS
TAF
KSNS 222339Z 2300/2324 27008KT P6SM SCT250
     FM230800 VRB04KT P6SM BKN005
     FM231900 26004KT P6SM FEW008 SCT250
     FM232100 28012KT P6SM SCT250=



000
FTUS46 KMTR 222300
TAFMRY
TAF
KMRY 222339Z 2300/2324 29008KT P6SM SCT250
     FM230100 22004KT P6SM SCT250
     FM230800 VRB03KT P6SM OVC005
     FM231100 VRB03KT P6SM OVC003
     FM231900 29005KT P6SM FEW008 SCT250=



000
FTUS46 KMTR 222300
TAFOAK
TAF
KOAK 222339Z 2300/2406 27006KT P6SM BKN200
     FM230900 27003KT P6SM BKN015
     FM231800 26006KT P6SM SCT015 OVC100
     FM240300 31006KT P6SM BKN100=



000
FTUS46 KMTR 222300
TAFSTS
TAF
KSTS 222339Z 2300/2324 20005KT P6SM SCT050 BKN250
     FM230300 00000KT P6SM SCT050 BKN200
     FM230800 00000KT P6SM BKN008
     FM231000 00000KT 3SM BR OVC004
     FM231800 VRB03KT P6SM FEW008 OVC050=



000
FTUS46 KMTR 222300
TAFSJC
TAF
KSJC 222339Z 2300/2324 30009KT P6SM FEW080 SCT130 BKN200
     FM230600 00000KT P6SM BKN200
     FM231300 VRB03KT P6SM SCT015 BKN200
     FM231900 31008KT P6SM OVC200=



000
FTUS46 KMTR 222300
TAFSFO
TAF
KSFO 222339Z 2300/2406 30008KT P6SM BKN200
     FM230300 27008KT P6SM BKN250
     FM231000 26003KT P6SM BKN015
     FM231800 29009KT P6SM FEW008 SCT015 OVC100=



000
FTUS46 KMTR 222100 AAA
TAFSFO
TAF AMD
KSFO 222101Z 2221/2324 29014KT P6SM BKN200
     FM230300 27008KT P6SM BKN250
     FM231000 26003KT P6SM BKN015
     FM231800 29009KT P6SM FEW008 SCT015=



000
FTUS46 KMTR 221700
TAFMRY
TAF
KMRY 221729Z 2218/2318 28008KT P6SM SCT250
     FM230100 22004KT P6SM SCT250
     FM230800 VRB03KT P6SM BKN015
     FM231300 VRB03KT P6SM BKN007=



000
FTUS46 KMTR 221700
TAFSJC
TAF
KSJC 221729Z 2218/2318 VRB03KT P6SM FEW080 BKN180
     FM222100 30008KT P6SM BKN200
     FM230500 VRB03KT P6SM BKN250
     FM231300 VRB03KT P6SM SCT015 BKN250=



000
FTUS46 KMTR 221700
TAFSFO
TAF
KSFO 221729Z 2218/2324 VRB05KT P6SM FEW020 SCT200
     FM222100 28014KT P6SM SCT250
     FM230300 27008KT P6SM BKN250
     FM231000 26003KT P6SM BKN015
     FM231800 29009KT P6SM FEW008 SCT015=



000
FTUS46 KMTR 221700
TAFSNS
TAF
KSNS 221729Z 2218/2318 VRB04KT P6SM SCT250
     FM222000 28010KT P6SM FEW250
     FM230300 30004KT P6SM SCT250
     FM231000 VRB03KT P6SM BKN012=



000
FTUS46 KMTR 221700
TAFSTS
TAF
KSTS 221729Z 2218/2318 VRB03KT P6SM SCT200
     FM222000 24006KT P6SM BKN200
     FM230300 VRB03KT P6SM BKN200
     FM230700 VRB03KT P6SM BKN008
     FM231000 VRB03KT 4SM BR OVC007=



000
FTUS46 KMTR 221700
TAFOAK
TAF
KOAK 221729Z 2218/2324 VRB03KT P6SM FEW030 SCT200
     FM222000 28010KT P6SM SCT250
     FM230900 28004KT P6SM BKN015
     FM231800 26006KT P6SM SCT015=



000
FTUS46 KMTR 221700
TAFSFO
TAF
KSFO 221729Z 2218/2324 VRB05KT P6SM FEW020 SCT200
     FM222100 28014KT P6SM SCT250
     FM230300 27008KT P6SM BKN250
     FM231000 26003KT P6SM BKN015
     FM231800 29009KT P6SM FEW008 SCT015=



000
FTUS46 KMTR 221700
TAFMRY
TAF
KMRY 221729Z 2218/2318 28008KT P6SM SCT250
     FM230100 22004KT P6SM SCT250
     FM230800 VRB03KT P6SM BKN015
     FM231300 VRB03KT P6SM BKN007=



000
FTUS46 KMTR 221700
TAFSNS
TAF
KSNS 221729Z 2218/2318 VRB04KT P6SM SCT250
     FM222000 28010KT P6SM FEW250
     FM230300 30004KT P6SM SCT250
     FM231000 VRB03KT P6SM BKN012=



000
FTUS46 KMTR 221700
TAFSTS
TAF
KSTS 221729Z 2218/2318 VRB03KT P6SM SCT200
     FM222000 24006KT P6SM BKN200
     FM230300 VRB03KT P6SM BKN200
     FM230700 VRB03KT P6SM BKN008
     FM231000 VRB03KT 4SM BR OVC007=



000
FTUS46 KMTR 221700
TAFOAK
TAF
KOAK 221729Z 2218/2324 VRB03KT P6SM FEW030 SCT200
     FM222000 28010KT P6SM SCT250
     FM230900 28004KT P6SM BKN015
     FM231800 26006KT P6SM SCT015=



000
FTUS46 KMTR 221700
TAFSJC
TAF
KSJC 221729Z 2218/2318 VRB03KT P6SM FEW080 BKN180
     FM222100 30008KT P6SM BKN200
     FM230500 VRB03KT P6SM BKN250
     FM231300 VRB03KT P6SM SCT015 BKN250=



000
FTUS46 KMTR 221500 AAA
TAFSFO
TAF AMD
KSFO 221501Z 2215/2318 29005KT P6SM SCT200
     FM222100 28014KT P6SM SCT250
     FM230300 27008KT P6SM BKN250
     FM231000 26003KT P6SM BKN015=



000
FTUS46 KMTR 221100
TAFSFO
TAF
KSFO 221120Z 2212/2318 29005KT P6SM FEW250
     FM222100 28014KT P6SM SCT250
     FM230300 27008KT P6SM BKN250
     FM231000 26003KT P6SM BKN015=



000
FTUS46 KMTR 221100
TAFSTS
TAF
KSTS 221120Z 2212/2312 VRB03KT P6SM SCT200
     FM222000 24006KT P6SM BKN200
     FM230300 VRB03KT P6SM BKN200
     FM230700 VRB03KT P6SM BKN008=



000
FTUS46 KMTR 221100
TAFOAK
TAF
KOAK 221120Z 2212/2318 VRB03KT P6SM FEW030
     FM222000 28010KT P6SM SCT250
     FM230600 28006KT P6SM BKN015=



000
FTUS46 KMTR 221100
TAFSJC
TAF
KSJC 221120Z 2212/2312 VRB03KT P6SM FEW250
     FM222100 30008KT P6SM BKN250
     FM230500 VRB03KT P6SM BKN250=



000
FTUS46 KMTR 221100
TAFMRY
TAF
KMRY 221120Z 2212/2312 08005KT P6SM FEW250
     FM221900 28008KT P6SM SCT250
     FM230100 22004KT P6SM SCT250
     FM230400 VRB03KT P6SM BKN015=



000
FTUS46 KMTR 221100
TAFSNS
TAF
KSNS 221120Z 2212/2312 09005KT P6SM FEW250
     FM222000 28010KT P6SM FEW250
     FM230300 30004KT P6SM SCT250
     FM230600 VRB03KT P6SM BKN015=



000
FTUS46 KMTR 220900 AAA
TAFSFO
TAF AMD
KSFO 220917Z 2209/2312 VRB03KT P6SM FEW250
     FM222100 28014KT P6SM SCT250
     FM230300 27008KT P6SM BKN250
     FM230800 26003KT P6SM BKN015=



000
FTUS46 KMTR 220500
TAFSFO
TAF
KSFO 220520Z 2206/2312 28006KT P6SM FEW010
     FM221500 VRB03KT P6SM FEW250
     FM221700 27006KT P6SM SCT250
     FM222200 28015KT P6SM SCT250
     FM230300 27008KT P6SM BKN250
     FM230800 26003KT P6SM BKN015=



000
FTUS46 KMTR 220500
TAFOAK
TAF
KOAK 220520Z 2206/2312 31004KT P6SM SKC
     FM221400 VRB03KT P6SM FEW250
     FM221800 22004KT P6SM FEW250
     FM222000 28010KT P6SM SCT250
     FM230600 28006KT P6SM BKN015=



000
FTUS46 KMTR 220500
TAFMRY
TAF
KMRY 220520Z 2206/2306 00000KT P6SM SKC
     FM220900 VRB03KT P6SM SKC
     FM221700 28006KT P6SM SKC
     FM230200 23003KT P6SM BKN015=



000
FTUS46 KMTR 220500
TAFSTS
TAF
KSTS 220520Z 2206/2306 00000KT P6SM SKC
     FM222000 27006KT P6SM BKN200
     FM222200 22005KT P6SM BKN200
     FM230300 VRB03KT P6SM BKN200=



000
FTUS46 KMTR 220500
TAFSFO
TAF
KSFO 220520Z 2206/2312 28006KT P6SM FEW010
     FM221500 VRB03KT P6SM FEW250
     FM221700 27006KT P6SM SCT250
     FM222200 28015KT P6SM SCT250
     FM230300 27008KT P6SM BKN250
     FM230800 26003KT P6SM BKN015=



000
FTUS46 KMTR 220500
TAFSNS
TAF
KSNS 220520Z 2206/2306 22005KT P6SM SKC
     FM221000 VRB03KT P6SM SKC
     FM221700 12005KT P6SM SKC
     FM222000 28012KT P6SM SKC
     FM230300 28006KT P6SM BKN015=



000
FTUS46 KMTR 220500
TAFSJC
TAF
KSJC 220520Z 2206/2306 29003KT P6SM SKC
     FM220800 00000KT P6SM FEW250
     FM221700 VRB03KT P6SM BKN250
     FM222100 30008KT P6SM BKN250
     FM230500 VRB03KT P6SM BKN250=



000
FTUS46 KMTR 220500
TAFSNS
TAF
KSNS 220520Z 2206/2306 22005KT P6SM SKC
     FM221000 VRB03KT P6SM SKC
     FM221700 12005KT P6SM SKC
     FM222000 28012KT P6SM SKC
     FM230300 28006KT P6SM BKN015=



000
FTUS46 KMTR 220500
TAFMRY
TAF
KMRY 220520Z 2206/2306 00000KT P6SM SKC
     FM220900 VRB03KT P6SM SKC
     FM221700 28006KT P6SM SKC
     FM230200 23003KT P6SM BKN015=



000
FTUS46 KMTR 220500
TAFOAK
TAF
KOAK 220520Z 2206/2312 31004KT P6SM SKC
     FM221400 VRB03KT P6SM FEW250
     FM221800 22004KT P6SM FEW250
     FM222000 28010KT P6SM SCT250
     FM230600 28006KT P6SM BKN015=



000
FTUS46 KMTR 220500
TAFSJC
TAF
KSJC 220520Z 2206/2306 29003KT P6SM SKC
     FM220800 00000KT P6SM FEW250
     FM221700 VRB03KT P6SM BKN250
     FM222100 30008KT P6SM BKN250
     FM230500 VRB03KT P6SM BKN250=



000
FTUS46 KMTR 220500
TAFSTS
TAF
KSTS 220520Z 2206/2306 00000KT P6SM SKC
     FM222000 27006KT P6SM BKN200
     FM222200 22005KT P6SM BKN200
     FM230300 VRB03KT P6SM BKN200=



000
FTUS46 KMTR 212300
TAFSJC
TAF
KSJC 212335Z 2200/2224 30013KT P6SM FEW140 SCT250
     FM220200 31006KT P6SM SCT250
     FM220400 VRB04KT P6SM FEW250
     FM220800 00000KT P6SM FEW250
     FM221700 VRB03KT P6SM BKN250
     FM222100 30008KT P6SM BKN250=



000
FTUS46 KMTR 212300
TAFSNS
TAF
KSNS 212335Z 2200/2224 27014KT P6SM SKC
     FM220200 28005KT P6SM SKC
     FM220900 VRB03KT P6SM BKN015
     FM221700 12005KT P6SM SCT015
     FM222000 28012KT P6SM SKC=



000
FTUS46 KMTR 212300
TAFSFO
TAF
KSFO 212335Z 2200/2306 28015KT P6SM SCT180
     FM220300 28006KT P6SM FEW250
     FM221500 VRB03KT P6SM BKN015
     FM221700 27006KT P6SM SCT015
     FM222200 28015KT P6SM SCT250
     FM230300 27008KT P6SM BKN250=



000
FTUS46 KMTR 212300
TAFMRY
TAF
KMRY 212335Z 2200/2224 28010KT P6SM SKC
     FM220300 VRB04KT P6SM SKC
     FM220900 VRB03KT P6SM BKN015
     FM221700 28006KT P6SM SCT015=



000
FTUS46 KMTR 212300
TAFSTS
TAF
KSTS 212335Z 2200/2224 26005KT P6SM SCT250
     FM220500 VRB03KT P6SM SCT250
     FM222000 27006KT P6SM BKN200=



000
FTUS46 KMTR 212300
TAFOAK
TAF
KOAK 212335Z 2200/2306 29012KT P6SM FEW015 SCT220
     FM220400 29004KT P6SM FEW250
     FM221400 VRB03KT P6SM BKN015
     FM221800 22004KT P6SM FEW015
     FM222000 28010KT P6SM SCT250
     FM230500 28006KT P6SM BKN250=



000
FTUS46 KMTR 212100 AAA
TAFSFO
TAF AMD
KSFO 212101Z 2121/2224 01009KT P6SM SCT180
     FM220300 28006KT P6SM SKC
     FM221500 VRB03KT P6SM BKN015
     FM221700 27006KT P6SM SCT015
     FM222200 28010KT P6SM SCT250=



000
FTUS46 KMTR 211700
TAFMRY
TAF
KMRY 211739Z 2118/2218 04006KT P6SM SKC
     FM212000 32009KT P6SM SKC
     FM220300 VRB04KT P6SM SKC
     FM220900 30003KT P6SM BKN015
     FM221700 27004KT P6SM SCT015=



000
FTUS46 KMTR 211700
TAFSTS
TAF
KSTS 211739Z 2118/2218 01004KT P6SM SKC
     FM212100 28005KT P6SM SKC
     FM220300 VRB03KT P6SM SKC
     FM221600 32004KT P6SM BKN200=



000
FTUS46 KMTR 211700
TAFSFO
TAF
KSFO 211739Z 2118/2224 03004KT P6SM FEW020 SCT180
     FM212100 28015KT P6SM SKC
     FM220300 28006KT P6SM SKC
     FM221400 VRB03KT P6SM BKN015
     FM221800 27006KT P6SM SCT015
     FM222200 28010KT P6SM SCT250=



000
FTUS46 KMTR 211700
TAFSNS
TAF
KSNS 211739Z 2118/2218 34008KT P6SM SKC
     FM212000 28013KT P6SM SKC
     FM220200 28005KT P6SM SKC
     FM220900 VRB03KT P6SM BKN015
     FM221700 12005KT P6SM SCT015=



000
FTUS46 KMTR 211700
TAFSJC
TAF
KSJC 211739Z 2118/2218 30007KT P6SM FEW028 SCT100 SCT150
     FM212300 30014KT P6SM SKC
     FM220200 31006KT P6SM SKC
     FM220400 VRB04KT P6SM SKC
     FM221400 00000KT P6SM BKN015=



000
FTUS46 KMTR 211700
TAFOAK
TAF
KOAK 211739Z 2118/2224 31006KT P6SM FEW020 SCT180
     FM212100 29012KT P6SM SKC
     FM220400 29004KT P6SM SKC
     FM221400 VRB03KT P6SM BKN015
     FM221800 22004KT P6SM SCT015
     FM222200 28010KT P6SM SCT250=



    US Dept of Commerce
    National Oceanic and Atmospheric Administration
    National Weather Service
    1325 East West Highway
    Silver Spring, MD 20910
    Page Author: NWS Internet Services Team
Disclaimer
Information Quality
Credits
Glossary
Privacy Policy
Freedom of Information Act (FOIA)
About Us
Career Opportunities